Terminal Aerodrome Forecast
Issued by NWS

Home | Current Version | Previous Version | Text Only | Print | Product List | Glossary On
Versions: 1 2 3 4 5 6 7 8 9 10 11 12 13 14 15
000
FTAK31 PAJN 230545
TAFAPG
TAF
PAPG 230545Z 2306/2406 00000KT P6SM VCSH SCT030 OVC050
      TEMPO 2306/2310 6SM -SHRA BR FEW010 BKN030 OVC050
     FM231000 00000KT 4SM BR SCT003 BKN035 BKN050
     FM231900 22005KT P6SM FEW010 BKN050
      AMD NOT SKED 2306/2315=

USA.gov is the U.S. government's official web portal to all federal, state and local government web resources and services.